Port Edwards, Wisconsin
Current Conditions -  °F | °C
As of 3:54 AM on Wednesday 26 Nov 2014 (Local Time) from KISW Reporting Station
Broken Clouds Broken Clouds  
Wind Chill: 15°   Ceiling: 7500
Heat Index: 15°   Visibility: NA
Dew Point: 12°   Wind: 3mph
Humidity: 88%   Direction: 80°E
Pressure: 30.12"   Gusts: NA
Location:  44.35°N, 89.87°W
Report Text: KISW 260954Z AUTO 08003KT BKN075 M09/M11 A3012 RMK AO2 SLP219 T10941111 $
Loading
Personal Weather Stations






























Interactive Weather Map New forecast layout! Learn more

10-Day Weather Forecast

Advertisements
Track Severe Weather on mobile